createdAt,value
2023-12-26T00:00:50.877Z,569.00
2023-12-26T00:01:50.956Z,566.00
2023-12-26T00:02:51.046Z,566.00
2023-12-26T00:03:51.172Z,567.00
2023-12-26T00:04:51.189Z,568.00
2023-12-26T00:05:51.314Z,568.00
2023-12-26T00:06:51.288Z,569.00
2023-12-26T00:07:51.374Z,569.00
2023-12-26T00:08:51.494Z,570.00
2023-12-26T00:09:51.509Z,570.00
2023-12-26T00:10:51.569Z,570.00
2023-12-26T00:11:51.692Z,568.00
2023-12-26T00:12:51.715Z,568.00
2023-12-26T00:13:51.778Z,569.00
2023-12-26T00:14:51.878Z,569.00
2023-12-26T00:15:51.904Z,568.00
2023-12-26T00:16:51.965Z,569.00
2023-12-26T00:17:52.311Z,568.00
2023-12-26T00:18:52.167Z,566.00
2023-12-26T00:19:52.242Z,565.00
2023-12-26T00:20:52.302Z,566.00
2023-12-26T00:21:52.316Z,566.00
2023-12-26T00:22:52.494Z,565.00
2023-12-26T00:23:52.592Z,565.00
2023-12-26T00:24:52.565Z,567.00
2023-12-26T00:25:52.624Z,568.00
2023-12-26T00:26:52.776Z,573.00
2023-12-26T00:27:52.763Z,573.00
2023-12-26T00:28:52.843Z,571.00
2023-12-26T00:29:53.014Z,569.00
2023-12-26T00:30:53.001Z,568.00
2023-12-26T00:31:53.036Z,569.00
2023-12-26T00:32:53.367Z,569.00
2023-12-26T00:33:53.282Z,572.00
2023-12-26T00:34:53.237Z,572.00
2023-12-26T00:35:53.292Z,571.00
2023-12-26T00:36:53.364Z,570.00
2023-12-26T00:37:53.406Z,570.00
2023-12-26T00:38:53.577Z,572.00
2023-12-26T00:39:53.528Z,573.00
2023-12-26T00:40:53.592Z,571.00
2023-12-26T00:41:53.683Z,566.00
2023-12-26T00:42:53.890Z,567.00
2023-12-26T00:43:53.753Z,568.00
2023-12-26T00:44:53.821Z,567.00
2023-12-26T00:45:53.863Z,566.00
2023-12-26T00:46:53.940Z,565.00
2023-12-26T00:47:54.218Z,564.00
2023-12-26T00:48:54.194Z,564.00
2023-12-26T00:49:54.146Z,564.00
2023-12-26T00:50:54.239Z,565.00
2023-12-26T00:51:54.260Z,567.00
2023-12-26T00:52:54.617Z,566.00
2023-12-26T00:53:54.503Z,565.00
2023-12-26T00:54:54.447Z,568.00
2023-12-26T00:55:54.468Z,567.00
2023-12-26T00:56:54.587Z,568.00
2023-12-26T00:57:54.577Z,566.00
2023-12-26T00:58:54.642Z,565.00
2023-12-26T00:59:54.692Z,567.00
2023-12-26T01:00:54.759Z,565.00
2023-12-26T01:01:54.772Z,564.00
2023-12-26T01:02:55.060Z,566.00
2023-12-26T01:03:55.007Z,566.00
2023-12-26T01:04:54.987Z,567.00
2023-12-26T01:05:55.047Z,569.00
2023-12-26T01:06:55.078Z,569.00
2023-12-26T01:07:55.159Z,568.00
2023-12-26T01:08:55.256Z,571.00
2023-12-26T01:09:55.320Z,569.00
2023-12-26T01:10:55.386Z,571.00
2023-12-26T01:11:55.456Z,569.00
2023-12-26T01:12:55.754Z,567.00
2023-12-26T01:13:55.565Z,567.00
2023-12-26T01:14:55.699Z,568.00
2023-12-26T01:15:55.687Z,569.00
2023-12-26T01:16:55.785Z,567.00
2023-12-26T01:17:55.937Z,567.00
2023-12-26T01:18:56.011Z,568.00
2023-12-26T01:19:55.977Z,570.00
2023-12-26T01:20:56.080Z,571.00
2023-12-26T01:21:56.120Z,570.00
2023-12-26T01:22:56.316Z,572.00
2023-12-26T01:23:56.319Z,573.00
2023-12-26T01:24:56.351Z,568.00
2023-12-26T01:25:56.407Z,568.00
2023-12-26T01:26:56.568Z,569.00
2023-12-26T01:27:56.573Z,568.00
2023-12-26T01:28:56.610Z,566.00
2023-12-26T01:29:56.722Z,565.00
2023-12-26T01:30:56.768Z,567.00
2023-12-26T01:31:56.818Z,570.00
2023-12-26T01:32:57.363Z,569.00
2023-12-26T01:33:57.133Z,570.00
2023-12-26T01:34:57.011Z,572.00
2023-12-26T01:35:57.135Z,573.00
2023-12-26T01:36:57.114Z,575.00
2023-12-26T01:37:57.223Z,574.00
2023-12-26T01:38:57.317Z,574.00
2023-12-26T01:39:57.276Z,576.00
2023-12-26T01:40:57.355Z,575.00
2023-12-26T01:41:57.410Z,575.00
2023-12-26T01:42:57.736Z,574.00
2023-12-26T01:43:57.489Z,572.00
2023-12-26T01:44:57.599Z,571.00
2023-12-26T01:45:57.599Z,571.00
2023-12-26T01:46:57.705Z,570.00
2023-12-26T01:47:57.975Z,567.00
2023-12-26T01:48:58.006Z,570.00
2023-12-26T01:49:57.963Z,569.00
2023-12-26T01:50:58.012Z,572.00
2023-12-26T01:51:57.996Z,574.00
2023-12-26T01:52:58.012Z,575.00
2023-12-26T01:53:58.080Z,578.00
2023-12-26T01:54:58.137Z,577.00
2023-12-26T01:55:58.190Z,577.00
2023-12-26T01:56:58.294Z,576.00
2023-12-26T01:57:58.296Z,575.00
2023-12-26T01:58:58.346Z,573.00
2023-12-26T01:59:58.383Z,570.00
2023-12-26T02:00:58.454Z,568.00
2023-12-26T02:01:58.506Z,570.00
2023-12-26T02:02:58.765Z,569.00
2023-12-26T02:03:58.687Z,567.00
2023-12-26T02:04:58.697Z,570.00
2023-12-26T02:05:58.752Z,573.00
2023-12-26T02:06:58.789Z,570.00
2023-12-26T02:07:58.806Z,569.00
2023-12-26T02:08:58.880Z,571.00
2023-12-26T02:09:58.906Z,572.00
2023-12-26T02:10:58.986Z,570.00
2023-12-26T02:11:59.051Z,572.00
2023-12-26T02:12:59.080Z,574.00
2023-12-26T02:13:59.149Z,575.00
2023-12-26T02:14:59.224Z,576.00
2023-12-26T02:15:59.282Z,574.00
2023-12-26T02:16:59.319Z,575.00
2023-12-26T02:17:59.432Z,575.00
2023-12-26T02:18:59.452Z,575.00
2023-12-26T02:19:59.526Z,575.00
2023-12-26T02:20:59.566Z,578.00
2023-12-26T02:21:59.583Z,578.00
2023-12-26T02:23:02.496Z,575.00
2023-12-26T02:23:59.681Z,573.00
2023-12-26T02:24:59.609Z,573.00
2023-12-26T02:25:59.614Z,571.00
2023-12-26T02:26:59.645Z,572.00
2023-12-26T02:27:59.612Z,573.00
2023-12-26T02:28:59.632Z,573.00
2023-12-26T02:29:59.709Z,575.00
2023-12-26T02:30:59.667Z,577.00
2023-12-26T02:31:59.641Z,577.00
2023-12-26T02:33:00.060Z,576.00
2023-12-26T02:33:59.708Z,577.00
2023-12-26T02:34:59.655Z,578.00
2023-12-26T02:35:59.643Z,576.00
2023-12-26T02:36:59.619Z,578.00
2023-12-26T02:37:59.625Z,579.00
2023-12-26T02:38:59.668Z,580.00
2023-12-26T02:39:59.639Z,581.00
2023-12-26T02:40:59.649Z,583.00
2023-12-26T02:41:59.655Z,582.00
2023-12-26T02:42:59.632Z,581.00
2023-12-26T02:43:59.670Z,578.00
2023-12-26T02:44:59.747Z,580.00
2023-12-26T02:45:59.630Z,577.00
2023-12-26T02:46:59.661Z,576.00
2023-12-26T02:47:59.949Z,577.00
2023-12-26T02:48:59.780Z,580.00
2023-12-26T02:49:59.689Z,580.00
2023-12-26T02:50:59.761Z,579.00
2023-12-26T02:51:59.788Z,578.00
2023-12-26T02:52:59.803Z,578.00
2023-12-26T02:53:59.887Z,577.00
2023-12-26T02:54:59.943Z,577.00
2023-12-26T02:56:00.002Z,579.00
2023-12-26T02:57:00.053Z,579.00
2023-12-26T02:58:00.105Z,577.00
2023-12-26T02:59:00.184Z,576.00
2023-12-26T03:00:00.279Z,576.00
2023-12-26T03:01:00.325Z,577.00
2023-12-26T03:02:00.309Z,578.00
2023-12-26T03:03:00.697Z,579.00
2023-12-26T03:04:00.465Z,578.00
2023-12-26T03:05:00.430Z,577.00
2023-12-26T03:06:00.623Z,579.00
2023-12-26T03:07:00.504Z,576.00
2023-12-26T03:08:00.539Z,576.00
2023-12-26T03:09:00.633Z,575.00
2023-12-26T03:10:00.622Z,577.00
2023-12-26T03:11:00.644Z,576.00
2023-12-26T03:12:00.719Z,574.00
2023-12-26T03:13:00.697Z,573.00
2023-12-26T03:14:00.727Z,572.00
2023-12-26T03:15:00.794Z,572.00
2023-12-26T03:16:00.807Z,572.00
2023-12-26T03:17:00.822Z,573.00
2023-12-26T03:18:00.976Z,574.00
2023-12-26T03:19:01.111Z,572.00
2023-12-26T03:20:01.013Z,572.00
2023-12-26T03:21:00.989Z,573.00
2023-12-26T03:22:01.103Z,574.00
2023-12-26T03:23:01.185Z,576.00
2023-12-26T03:24:01.154Z,575.00
2023-12-26T03:25:01.168Z,575.00
2023-12-26T03:26:01.217Z,573.00
2023-12-26T03:27:01.344Z,576.00
2023-12-26T03:28:01.358Z,579.00
2023-12-26T03:29:01.404Z,578.00
2023-12-26T03:30:01.489Z,578.00
2023-12-26T03:31:01.490Z,578.00
2023-12-26T03:32:01.548Z,577.00
2023-12-26T03:33:02.066Z,576.00
2023-12-26T03:34:01.660Z,579.00
2023-12-26T03:35:01.682Z,577.00
2023-12-26T03:36:01.744Z,578.00
2023-12-26T03:37:01.759Z,579.00
2023-12-26T03:38:01.793Z,579.00
2023-12-26T03:39:01.942Z,578.00
2023-12-26T03:40:01.888Z,577.00
2023-12-26T03:41:01.923Z,578.00
2023-12-26T03:42:02.037Z,575.00
2023-12-26T03:43:01.959Z,575.00
2023-12-26T03:44:02.010Z,575.00
2023-12-26T03:45:02.040Z,576.00
2023-12-26T03:46:02.023Z,577.00
2023-12-26T03:47:02.051Z,575.00
2023-12-26T03:48:02.218Z,575.00
2023-12-26T03:49:02.239Z,571.00
2023-12-26T03:50:02.228Z,572.00
2023-12-26T03:51:02.276Z,570.00
2023-12-26T03:52:02.227Z,573.00
2023-12-26T03:53:02.253Z,574.00
2023-12-26T03:54:02.296Z,572.00
2023-12-26T03:55:02.297Z,573.00
2023-12-26T03:56:02.331Z,575.00
2023-12-26T03:57:02.408Z,576.00
2023-12-26T03:58:02.416Z,576.00
2023-12-26T03:59:02.425Z,573.00
2023-12-26T04:00:02.515Z,573.00
2023-12-26T04:01:02.485Z,574.00
2023-12-26T04:02:02.556Z,572.00
2023-12-26T04:03:02.645Z,571.00
2023-12-26T04:04:02.746Z,571.00
2023-12-26T04:05:02.620Z,569.00
2023-12-26T04:06:02.704Z,568.00
2023-12-26T04:07:02.677Z,565.00
2023-12-26T04:08:02.731Z,565.00
2023-12-26T04:09:02.813Z,566.00
2023-12-26T04:10:02.804Z,569.00
2023-12-26T04:11:02.840Z,569.00
2023-12-26T04:12:02.899Z,571.00
2023-12-26T04:13:02.874Z,573.00
2023-12-26T04:14:02.896Z,575.00
2023-12-26T04:15:02.966Z,575.00
2023-12-26T04:16:02.942Z,576.00
2023-12-26T04:17:02.922Z,577.00
2023-12-26T04:18:03.202Z,578.00
2023-12-26T04:19:03.064Z,578.00
2023-12-26T04:20:02.999Z,576.00
2023-12-26T04:21:03.009Z,575.00
2023-12-26T04:22:02.994Z,575.00
2023-12-26T04:23:02.998Z,574.00
2023-12-26T04:24:03.008Z,574.00
2023-12-26T04:25:03.005Z,572.00
2023-12-26T04:26:10.201Z,565.00
2023-12-26T04:27:10.242Z,565.00
2023-12-26T04:28:10.179Z,566.00
2023-12-26T04:29:10.182Z,569.00
2023-12-26T04:30:10.305Z,567.00
2023-12-26T04:31:17.560Z,558.00
2023-12-26T04:32:17.530Z,563.00
2023-12-26T04:33:17.726Z,566.00
2023-12-26T04:34:17.718Z,567.00
2023-12-26T04:35:17.567Z,568.00
2023-12-26T04:36:17.574Z,567.00
2023-12-26T04:37:17.545Z,569.00
2023-12-26T04:38:17.550Z,570.00
2023-12-26T04:39:17.634Z,571.00
2023-12-26T04:40:17.543Z,572.00
2023-12-26T04:41:17.527Z,574.00
2023-12-26T04:42:17.567Z,574.00
2023-12-26T04:43:17.554Z,572.00
2023-12-26T04:44:17.535Z,571.00
2023-12-26T04:45:17.655Z,572.00
2023-12-26T04:46:17.554Z,570.00
2023-12-26T04:47:17.578Z,569.00
2023-12-26T04:48:17.665Z,568.00
2023-12-26T04:49:17.689Z,569.00
2023-12-26T04:50:17.552Z,570.00
2023-12-26T04:51:17.643Z,572.00
2023-12-26T04:52:17.573Z,570.00
2023-12-26T04:53:17.553Z,569.00
2023-12-26T04:54:17.588Z,570.00
2023-12-26T04:55:17.585Z,568.00
2023-12-26T04:56:17.599Z,570.00
2023-12-26T04:57:17.649Z,573.00
2023-12-26T04:58:17.589Z,574.00
2023-12-26T04:59:17.562Z,572.00
2023-12-26T05:00:17.686Z,571.00
2023-12-26T05:01:17.603Z,573.00
2023-12-26T05:02:17.575Z,572.00
2023-12-26T05:03:17.683Z,572.00
2023-12-26T05:04:17.594Z,568.00
2023-12-26T05:05:17.619Z,565.00
2023-12-26T05:06:17.626Z,564.00
2023-12-26T05:07:17.579Z,566.00
2023-12-26T05:08:17.597Z,567.00
2023-12-26T05:09:17.764Z,565.00
2023-12-26T05:10:17.586Z,565.00
2023-12-26T05:11:17.586Z,567.00
2023-12-26T05:12:17.623Z,566.00
2023-12-26T05:13:17.576Z,565.00
2023-12-26T05:14:17.602Z,566.00
2023-12-26T05:15:17.623Z,567.00
2023-12-26T05:16:17.596Z,566.00
2023-12-26T05:17:17.596Z,566.00
2023-12-26T05:18:17.716Z,568.00
2023-12-26T05:19:17.797Z,569.00
2023-12-26T05:20:26.654Z,569.00
2023-12-26T05:21:18.642Z,569.00
2023-12-26T05:22:17.620Z,573.00
2023-12-26T05:23:17.616Z,571.00
2023-12-26T05:24:17.625Z,571.00
2023-12-26T05:25:17.615Z,569.00
2023-12-26T05:26:17.677Z,568.00
2023-12-26T05:27:17.681Z,568.00
2023-12-26T05:28:17.627Z,567.00
2023-12-26T05:29:17.675Z,567.00
2023-12-26T05:30:17.768Z,567.00
2023-12-26T05:31:17.690Z,570.00
2023-12-26T05:32:17.721Z,570.00
2023-12-26T05:33:17.750Z,568.00
2023-12-26T05:34:17.679Z,568.00
2023-12-26T05:35:17.639Z,569.00
2023-12-26T05:36:17.735Z,570.00
2023-12-26T05:37:17.628Z,569.00
2023-12-26T05:38:17.643Z,570.00
2023-12-26T05:39:17.644Z,569.00
2023-12-26T05:40:17.637Z,568.00
2023-12-26T05:41:17.632Z,570.00
2023-12-26T05:42:17.749Z,570.00
2023-12-26T05:43:17.646Z,569.00
2023-12-26T05:44:17.629Z,570.00
2023-12-26T05:45:17.688Z,567.00
2023-12-26T05:46:17.647Z,567.00
2023-12-26T05:47:17.661Z,565.00
2023-12-26T05:48:17.831Z,567.00
2023-12-26T05:49:17.969Z,564.00
2023-12-26T05:50:17.742Z,563.00
2023-12-26T05:51:17.665Z,564.00
2023-12-26T05:52:17.655Z,565.00
2023-12-26T05:53:17.652Z,568.00
2023-12-26T05:54:17.779Z,569.00
2023-12-26T05:55:17.638Z,572.00
2023-12-26T05:56:17.646Z,572.00
2023-12-26T05:57:17.716Z,573.00
2023-12-26T05:58:17.668Z,572.00
2023-12-26T05:59:17.654Z,572.00
2023-12-26T06:00:17.803Z,571.00
2023-12-26T06:01:17.762Z,569.00
2023-12-26T06:02:17.664Z,568.00
2023-12-26T06:03:17.706Z,568.00
2023-12-26T06:04:17.704Z,570.00
2023-12-26T06:05:17.671Z,570.00
2023-12-26T06:06:17.737Z,571.00
2023-12-26T06:07:17.660Z,571.00
2023-12-26T06:08:17.662Z,572.00
2023-12-26T06:09:17.774Z,572.00
2023-12-26T06:10:17.689Z,571.00
2023-12-26T06:11:17.680Z,569.00
2023-12-26T06:12:17.686Z,571.00
2023-12-26T06:13:17.691Z,569.00
2023-12-26T06:14:17.699Z,568.00
2023-12-26T06:15:17.782Z,569.00
2023-12-26T06:16:17.677Z,568.00
2023-12-26T06:17:17.696Z,569.00
2023-12-26T06:18:17.762Z,571.00
2023-12-26T06:19:17.811Z,573.00
2023-12-26T06:20:17.732Z,576.00
2023-12-26T06:21:17.773Z,572.00
2023-12-26T06:22:17.691Z,574.00
2023-12-26T06:23:17.695Z,575.00
2023-12-26T06:24:17.716Z,577.00
2023-12-26T06:25:17.696Z,577.00
2023-12-26T06:26:17.717Z,576.00
2023-12-26T06:27:17.803Z,576.00
2023-12-26T06:28:17.728Z,577.00
2023-12-26T06:29:17.731Z,578.00
2023-12-26T06:30:17.841Z,578.00
2023-12-26T06:31:17.732Z,575.00
2023-12-26T06:32:17.704Z,572.00
2023-12-26T06:33:17.795Z,572.00
2023-12-26T06:34:17.812Z,573.00
2023-12-26T06:35:17.725Z,575.00
2023-12-26T06:36:17.867Z,577.00
2023-12-26T06:37:17.725Z,580.00
2023-12-26T06:38:17.742Z,580.00
2023-12-26T06:39:17.808Z,580.00
2023-12-26T06:40:17.725Z,577.00
2023-12-26T06:41:17.727Z,574.00
2023-12-26T06:42:17.790Z,575.00
2023-12-26T06:43:17.741Z,575.00
2023-12-26T06:44:17.746Z,577.00
2023-12-26T06:45:17.787Z,575.00
2023-12-26T06:46:17.759Z,575.00
2023-12-26T06:47:17.726Z,576.00
2023-12-26T06:48:17.817Z,576.00
2023-12-26T06:49:18.111Z,578.00
2023-12-26T06:50:17.729Z,577.00
2023-12-26T06:51:17.789Z,577.00
2023-12-26T06:52:17.753Z,576.00
2023-12-26T06:53:17.770Z,575.00
2023-12-26T06:54:17.765Z,575.00
2023-12-26T06:55:19.695Z,575.00
2023-12-26T06:56:17.757Z,574.00
2023-12-26T06:57:18.133Z,574.00
2023-12-26T06:58:17.754Z,574.00
2023-12-26T06:59:17.750Z,575.00
2023-12-26T07:00:17.799Z,575.00
2023-12-26T07:01:17.765Z,576.00
2023-12-26T07:02:17.772Z,577.00
2023-12-26T07:03:17.839Z,575.00
2023-12-26T07:04:17.792Z,576.00
2023-12-26T07:05:17.825Z,575.00
2023-12-26T07:06:17.794Z,576.00
2023-12-26T07:07:17.762Z,573.00
2023-12-26T07:08:17.785Z,568.00
2023-12-26T07:09:17.796Z,568.00
2023-12-26T07:10:17.788Z,566.00
2023-12-26T07:11:17.774Z,566.00
2023-12-26T07:12:17.805Z,569.00
2023-12-26T07:13:17.756Z,568.00
2023-12-26T07:14:17.793Z,572.00
2023-12-26T07:15:17.824Z,571.00
2023-12-26T07:16:17.770Z,571.00
2023-12-26T07:17:17.777Z,571.00
2023-12-26T07:18:17.866Z,572.00
2023-12-26T07:19:17.831Z,574.00
2023-12-26T07:20:17.785Z,575.00
2023-12-26T07:21:17.867Z,575.00
2023-12-26T07:22:17.807Z,578.00
2023-12-26T07:23:17.834Z,576.00
2023-12-26T07:24:17.922Z,575.00
2023-12-26T07:25:17.821Z,574.00
2023-12-26T07:26:17.843Z,572.00
2023-12-26T07:27:17.906Z,571.00
2023-12-26T07:28:17.848Z,573.00
2023-12-26T07:29:17.855Z,576.00
2023-12-26T07:30:17.950Z,576.00
2023-12-26T07:31:17.878Z,579.00
2023-12-26T07:32:17.886Z,577.00
2023-12-26T07:33:17.936Z,577.00
2023-12-26T07:34:17.917Z,575.00
2023-12-26T07:35:17.877Z,570.00
2023-12-26T07:36:17.922Z,569.00
2023-12-26T07:37:17.902Z,571.00
2023-12-26T07:38:17.917Z,570.00
2023-12-26T07:39:18.058Z,569.00
2023-12-26T07:40:17.909Z,571.00
2023-12-26T07:41:17.932Z,572.00
2023-12-26T07:42:18.013Z,572.00
2023-12-26T07:43:17.945Z,573.00
2023-12-26T07:44:17.932Z,575.00
2023-12-26T07:45:17.960Z,575.00
2023-12-26T07:46:17.951Z,574.00
2023-12-26T07:47:17.968Z,572.00
2023-12-26T07:48:18.099Z,572.00
2023-12-26T07:49:18.151Z,573.00
2023-12-26T07:50:18.150Z,574.00
2023-12-26T07:51:17.998Z,574.00
2023-12-26T07:52:18.007Z,574.00
2023-12-26T07:53:18.015Z,574.00
2023-12-26T07:54:18.175Z,572.00
2023-12-26T07:55:18.571Z,572.00
2023-12-26T07:56:18.008Z,573.00
2023-12-26T07:57:18.106Z,572.00
2023-12-26T07:58:18.036Z,571.00
2023-12-26T07:59:18.047Z,570.00
2023-12-26T08:00:18.139Z,568.00
2023-12-26T08:01:18.053Z,572.00
2023-12-26T08:02:18.025Z,572.00
2023-12-26T08:03:18.139Z,571.00
2023-12-26T08:04:18.099Z,571.00
2023-12-26T08:05:18.110Z,572.00
2023-12-26T08:06:18.120Z,569.00
2023-12-26T08:07:18.089Z,570.00
2023-12-26T08:08:18.103Z,574.00
2023-12-26T08:09:18.118Z,573.00
2023-12-26T08:10:18.110Z,573.00
2023-12-26T08:11:18.114Z,574.00
2023-12-26T08:12:18.165Z,574.00
2023-12-26T08:13:18.140Z,572.00
2023-12-26T08:14:18.146Z,571.00
2023-12-26T08:15:18.234Z,570.00
2023-12-26T08:16:18.199Z,573.00
2023-12-26T08:17:18.209Z,572.00
2023-12-26T08:18:18.367Z,571.00
2023-12-26T08:19:20.504Z,574.00
2023-12-26T08:20:18.226Z,574.00
2023-12-26T08:21:18.357Z,573.00
2023-12-26T08:22:18.223Z,574.00
2023-12-26T08:23:18.226Z,573.00
2023-12-26T08:24:18.260Z,575.00
2023-12-26T08:25:20.149Z,577.00
2023-12-26T08:26:18.218Z,575.00
2023-12-26T08:27:18.245Z,574.00
2023-12-26T08:28:18.224Z,573.00
2023-12-26T08:29:18.220Z,572.00
2023-12-26T08:30:18.337Z,568.00
2023-12-26T08:31:18.324Z,567.00
2023-12-26T08:32:18.235Z,566.00
2023-12-26T08:33:18.353Z,564.00
2023-12-26T08:34:18.345Z,564.00
2023-12-26T08:35:18.275Z,568.00
2023-12-26T08:36:18.341Z,568.00
2023-12-26T08:37:18.287Z,569.00
2023-12-26T08:38:18.250Z,571.00
2023-12-26T08:39:18.301Z,573.00
2023-12-26T08:40:18.245Z,575.00
2023-12-26T08:41:18.253Z,575.00
2023-12-26T08:42:18.398Z,576.00
2023-12-26T08:43:18.278Z,577.00
2023-12-26T08:44:18.242Z,576.00
2023-12-26T08:45:18.277Z,579.00
2023-12-26T08:46:18.245Z,578.00
2023-12-26T08:47:18.256Z,578.00
2023-12-26T08:48:18.435Z,579.00
2023-12-26T08:49:18.393Z,577.00
2023-12-26T08:50:18.370Z,574.00
2023-12-26T08:51:18.379Z,573.00
2023-12-26T08:52:18.278Z,573.00
2023-12-26T08:53:18.275Z,573.00
2023-12-26T08:54:18.267Z,570.00
2023-12-26T08:55:18.265Z,570.00
2023-12-26T08:56:18.265Z,571.00
2023-12-26T08:57:18.494Z,571.00
2023-12-26T08:58:18.285Z,573.00
2023-12-26T08:59:18.285Z,573.00
2023-12-26T09:00:18.316Z,574.00
2023-12-26T09:01:18.303Z,577.00
2023-12-26T09:02:18.258Z,577.00
2023-12-26T09:03:19.077Z,576.00
2023-12-26T09:04:18.343Z,575.00
2023-12-26T09:05:18.306Z,575.00
2023-12-26T09:06:18.368Z,580.00
2023-12-26T09:07:18.295Z,580.00
2023-12-26T09:08:18.308Z,581.00
2023-12-26T09:09:18.445Z,582.00
2023-12-26T09:10:18.312Z,580.00
2023-12-26T09:11:18.340Z,578.00
2023-12-26T09:12:18.404Z,577.00
2023-12-26T09:13:18.371Z,575.00
2023-12-26T09:14:18.378Z,574.00
2023-12-26T09:15:18.460Z,575.00
2023-12-26T09:16:18.378Z,573.00
2023-12-26T09:17:18.381Z,572.00
2023-12-26T09:18:18.628Z,574.00
2023-12-26T09:19:18.540Z,573.00
2023-12-26T09:20:18.425Z,570.00
2023-12-26T09:21:18.523Z,571.00
2023-12-26T09:22:18.403Z,571.00
2023-12-26T09:23:18.418Z,573.00
2023-12-26T09:24:18.490Z,573.00
2023-12-26T09:25:18.442Z,574.00
2023-12-26T09:26:18.470Z,573.00
2023-12-26T09:27:18.518Z,571.00
2023-12-26T09:28:18.519Z,570.00
2023-12-26T09:29:18.509Z,569.00
2023-12-26T09:30:18.640Z,571.00
2023-12-26T09:31:18.604Z,571.00
2023-12-26T09:32:18.588Z,569.00
2023-12-26T09:33:18.825Z,566.00
2023-12-26T09:34:18.826Z,564.00
2023-12-26T09:35:18.701Z,563.00
2023-12-26T09:36:18.746Z,562.00
2023-12-26T09:37:18.736Z,562.00
2023-12-26T09:38:18.760Z,560.00
2023-12-26T09:39:18.806Z,559.00
2023-12-26T09:40:18.786Z,560.00
2023-12-26T09:41:18.810Z,561.00
2023-12-26T09:42:18.880Z,563.00
2023-12-26T09:43:18.859Z,563.00
2023-12-26T09:44:18.892Z,562.00
2023-12-26T09:45:18.973Z,564.00
2023-12-26T09:46:18.960Z,565.00
2023-12-26T09:47:18.946Z,565.00
2023-12-26T09:48:19.151Z,568.00
2023-12-26T09:49:19.107Z,567.00
2023-12-26T09:50:19.249Z,566.00
2023-12-26T09:51:19.098Z,568.00
2023-12-26T09:52:19.056Z,566.00
2023-12-26T09:53:19.051Z,566.00
2023-12-26T09:54:19.133Z,567.00
2023-12-26T09:55:19.106Z,570.00
2023-12-26T09:56:19.126Z,572.00
2023-12-26T09:57:19.213Z,572.00
2023-12-26T09:58:19.208Z,572.00
2023-12-26T09:59:19.220Z,574.00
2023-12-26T10:00:19.240Z,573.00
2023-12-26T10:01:19.301Z,576.00
2023-12-26T10:02:19.278Z,575.00
2023-12-26T10:03:19.443Z,574.00
2023-12-26T10:04:19.296Z,574.00
2023-12-26T10:05:19.447Z,572.00
2023-12-26T10:06:19.357Z,572.00
2023-12-26T10:07:19.380Z,575.00
2023-12-26T10:08:19.421Z,573.00
2023-12-26T10:09:19.450Z,571.00
2023-12-26T10:10:19.445Z,570.00
2023-12-26T10:11:19.506Z,572.00
2023-12-26T10:12:19.514Z,571.00
2023-12-26T10:13:19.515Z,571.00
2023-12-26T10:14:19.564Z,569.00
2023-12-26T10:15:19.666Z,569.00
2023-12-26T10:16:19.598Z,571.00
2023-12-26T10:17:19.628Z,572.00
2023-12-26T10:18:19.814Z,570.00
2023-12-26T10:19:19.839Z,568.00
2023-12-26T10:20:19.783Z,571.00
2023-12-26T10:21:19.858Z,571.00
2023-12-26T10:22:19.873Z,572.00
2023-12-26T10:23:19.908Z,574.00
2023-12-26T10:24:20.062Z,572.00
2023-12-26T10:25:19.981Z,569.00
2023-12-26T10:26:20.052Z,569.00
2023-12-26T10:27:20.195Z,569.00
2023-12-26T10:28:20.144Z,569.00
2023-12-26T10:29:20.222Z,571.00
2023-12-26T10:30:20.314Z,570.00
2023-12-26T10:31:20.353Z,573.00
2023-12-26T10:32:20.358Z,574.00
2023-12-26T10:33:20.484Z,572.00
2023-12-26T10:34:20.686Z,571.00
2023-12-26T10:35:20.516Z,571.00
2023-12-26T10:36:20.622Z,571.00
2023-12-26T10:37:20.654Z,570.00
2023-12-26T10:38:20.720Z,571.00
2023-12-26T10:39:20.838Z,571.00
2023-12-26T10:40:20.870Z,569.00
2023-12-26T10:41:20.903Z,568.00
2023-12-26T10:42:21.113Z,568.00
2023-12-26T10:43:21.049Z,567.00
2023-12-26T10:44:21.139Z,567.00
2023-12-26T10:45:21.236Z,567.00
2023-12-26T10:46:21.252Z,568.00
2023-12-26T10:47:21.348Z,565.00
2023-12-26T10:48:21.511Z,564.00
2023-12-26T10:49:21.601Z,562.00
2023-12-26T10:50:21.579Z,561.00
2023-12-26T10:51:21.644Z,559.00
2023-12-26T10:52:21.702Z,561.00
2023-12-26T10:53:21.743Z,566.00
2023-12-26T10:54:22.052Z,565.00
2023-12-26T10:55:21.953Z,566.00
2023-12-26T10:56:21.967Z,567.00
2023-12-26T10:57:22.103Z,566.00
2023-12-26T10:58:22.124Z,567.00
2023-12-26T10:59:22.183Z,565.00
2023-12-26T11:00:22.313Z,563.00
2023-12-26T11:01:22.354Z,562.00
2023-12-26T11:02:22.376Z,564.00
2023-12-26T11:03:22.557Z,565.00
2023-12-26T11:04:22.581Z,567.00
2023-12-26T11:05:22.710Z,568.00
2023-12-26T11:06:22.679Z,570.00
2023-12-26T11:07:22.789Z,568.00
2023-12-26T11:08:22.751Z,567.00
2023-12-26T11:09:22.821Z,571.00
2023-12-26T11:10:22.846Z,570.00
2023-12-26T11:11:22.885Z,572.00
2023-12-26T11:12:23.026Z,571.00
2023-12-26T11:13:23.010Z,569.00
2023-12-26T11:14:23.093Z,568.00
2023-12-26T11:15:23.237Z,566.00
2023-12-26T11:16:23.217Z,564.00
2023-12-26T11:17:23.371Z,566.00
2023-12-26T11:18:23.536Z,566.00
2023-12-26T11:19:23.484Z,567.00
2023-12-26T11:20:23.488Z,564.00
2023-12-26T11:21:23.639Z,562.00
2023-12-26T11:22:23.608Z,564.00
2023-12-26T11:23:23.689Z,564.00
2023-12-26T11:24:23.811Z,567.00
2023-12-26T11:25:23.850Z,563.00
2023-12-26T11:26:23.870Z,560.00
2023-12-26T11:27:24.011Z,559.00
2023-12-26T11:28:24.001Z,558.00
2023-12-26T11:29:24.075Z,559.00
2023-12-26T11:30:24.251Z,560.00
2023-12-26T11:31:24.247Z,561.00
2023-12-26T11:32:24.395Z,561.00
2023-12-26T11:33:24.455Z,562.00
2023-12-26T11:34:24.489Z,561.00
2023-12-26T11:35:24.454Z,562.00
2023-12-26T11:36:24.701Z,562.00
2023-12-26T11:37:24.596Z,560.00
2023-12-26T11:38:24.674Z,559.00
2023-12-26T11:39:24.760Z,558.00
2023-12-26T11:40:24.771Z,557.00
2023-12-26T11:41:24.846Z,557.00
2023-12-26T11:42:24.989Z,560.00
2023-12-26T11:43:24.949Z,560.00
2023-12-26T11:44:25.322Z,559.00
2023-12-26T11:45:25.182Z,558.00
2023-12-26T11:46:25.125Z,557.00
2023-12-26T11:47:25.178Z,559.00
2023-12-26T11:48:25.511Z,559.00
2023-12-26T11:49:25.380Z,558.00
2023-12-26T11:50:25.336Z,556.00
2023-12-26T11:51:25.601Z,558.00
2023-12-26T11:52:25.430Z,560.00
2023-12-26T11:53:25.512Z,560.00
2023-12-26T11:54:25.572Z,561.00
2023-12-26T11:55:25.671Z,559.00
2023-12-26T11:56:25.660Z,557.00
2023-12-26T11:57:25.835Z,557.00
2023-12-26T11:58:25.788Z,556.00
2023-12-26T11:59:25.834Z,556.00
2023-12-26T12:00:25.938Z,557.00
2023-12-26T12:01:26.004Z,560.00
2023-12-26T12:02:26.056Z,559.00
2023-12-26T12:03:26.178Z,560.00
2023-12-26T12:04:26.165Z,560.00
2023-12-26T12:05:26.263Z,560.00
2023-12-26T12:06:29.759Z,558.00
2023-12-26T12:07:26.309Z,556.00
2023-12-26T12:08:26.312Z,559.00
2023-12-26T12:09:26.335Z,560.00
2023-12-26T12:10:26.292Z,562.00
2023-12-26T12:11:26.305Z,559.00
2023-12-26T12:12:26.422Z,559.00
2023-12-26T12:13:26.302Z,559.00
2023-12-26T12:14:26.362Z,558.00
2023-12-26T12:15:26.336Z,556.00
2023-12-26T12:16:26.320Z,553.00
2023-12-26T12:17:26.314Z,552.00
2023-12-26T12:18:26.650Z,553.00
2023-12-26T12:19:26.461Z,554.00
2023-12-26T12:20:26.310Z,557.00
2023-12-26T12:21:26.381Z,558.00
2023-12-26T12:22:26.335Z,558.00
2023-12-26T12:23:26.310Z,558.00
2023-12-26T12:24:26.498Z,555.00
2023-12-26T12:25:26.331Z,553.00
2023-12-26T12:26:26.330Z,550.00
2023-12-26T12:27:26.365Z,551.00
2023-12-26T12:28:26.340Z,552.00
2023-12-26T12:29:26.344Z,556.00